createdAt,value
2019-01-08T00:02:22.124Z,5.4
2019-01-08T00:17:34.440Z,5.4
2019-01-08T00:32:43.208Z,5.4
2019-01-08T00:47:59.241Z,5.5
2019-01-08T01:03:11.814Z,5.5
2019-01-08T01:18:26.016Z,5.6
2019-01-08T01:33:36.647Z,5.5
2019-01-08T01:48:48.973Z,5.2
2019-01-08T02:04:01.299Z,5
2019-01-08T02:19:13.520Z,5
2019-01-08T02:34:25.782Z,5.1
2019-01-08T02:49:36.603Z,5
2019-01-08T03:04:51.935Z,5
2019-01-08T03:20:02.514Z,5
2019-01-08T03:35:14.659Z,4.8
2019-01-08T03:50:19.611Z,4.8
2019-01-08T04:05:39.067Z,4.8
2019-01-08T04:20:51.286Z,5
2019-01-08T04:36:03.564Z,5.1
2019-01-08T04:51:15.870Z,5.1
2019-01-08T05:06:28.246Z,5.3
2019-01-08T05:21:40.581Z,5.1
2019-01-08T05:36:53.006Z,5.1
2019-01-08T05:52:05.344Z,5.3
2019-01-08T06:07:12.072Z,5.4
2019-01-08T06:22:30.122Z,5.3
2019-01-08T06:37:42.553Z,5.3
2019-01-08T06:52:54.828Z,5.3
2019-01-08T07:08:07.171Z,5.3
2019-01-08T07:23:19.577Z,5.3
2019-01-08T07:38:32.000Z,5.3
2019-01-08T07:53:44.373Z,5.6
2019-01-08T08:08:56.972Z,5.7
2019-01-08T08:24:07.535Z,5.9
2019-01-08T08:39:22.056Z,6
2019-01-08T08:54:34.730Z,6
2019-01-08T09:09:47.482Z,5.9
2019-01-08T09:25:00.016Z,5.9
2019-01-08T09:40:12.637Z,5.8
2019-01-08T09:55:25.109Z,5.6
2019-01-08T10:10:37.680Z,5.9
2019-01-08T10:25:50.328Z,6
2019-01-08T10:41:00.280Z,6.9
2019-01-08T10:56:16.458Z,6.1
2019-01-08T11:11:29.094Z,5.9
2019-01-08T11:26:43.641Z,5.8
2019-01-08T11:41:54.233Z,6.3
2019-01-08T11:57:07.092Z,6.2
2019-01-08T12:12:19.542Z,5.5
2019-01-08T12:27:31.979Z,5.5
2019-01-08T12:42:44.452Z,5.5
2019-01-08T12:57:55.019Z,5.3
2019-01-08T13:13:09.135Z,4.9
2019-01-08T13:28:23.292Z,4.7
2019-01-08T13:43:33.466Z,4.7
2019-01-08T13:58:37.641Z,4.9
2019-01-08T14:13:58.328Z,5.3
2019-01-08T14:29:10.467Z,5.7
2019-01-08T14:44:23.061Z,5.9
2019-01-08T14:59:35.658Z,5.9
2019-01-08T15:14:47.878Z,5.8
2019-01-08T15:30:00.792Z,5.5
2019-01-08T15:45:13.250Z,5.4
2019-01-08T16:00:25.737Z,5.6
2019-01-08T16:15:31.157Z,5.7
2019-01-08T16:30:50.661Z,5.5
2019-01-08T16:46:04.293Z,5.5
2019-01-08T17:01:15.566Z,5.5
2019-01-08T17:16:28.074Z,5.4
2019-01-08T17:31:40.492Z,5.5
2019-01-08T17:46:52.949Z,5.3
2019-01-08T18:02:05.369Z,5.3
2019-01-08T18:17:17.802Z,4.7
2019-01-08T18:32:23.995Z,4.4
2019-01-08T18:47:41.769Z,4.3
2019-01-08T19:02:53.745Z,4.1
2019-01-08T19:18:05.639Z,4.1
2019-01-08T19:33:17.662Z,4.2
2019-01-08T19:48:29.525Z,4.2
2019-01-08T20:03:41.460Z,3.8
2019-01-08T20:18:53.266Z,4.1
2019-01-08T20:34:05.067Z,3.3
2019-01-08T20:49:13.415Z,3
2019-01-08T21:04:35.230Z,3.1
2019-01-08T21:19:40.038Z,3.1
2019-01-08T21:34:51.473Z,3
2019-01-08T21:49:54.496Z,2.9
2019-01-08T22:05:14.450Z,2.7
2019-01-08T22:20:26.838Z,2.6
2019-01-08T22:35:37.403Z,3.4
2019-01-08T22:50:49.246Z,3.1
2019-01-08T23:06:00.147Z,2
2019-01-08T23:21:11.431Z,1.5
2019-01-08T23:36:22.495Z,1.5
2019-01-08T23:51:33.626Z,1.9
